Time;durP1;ratioP1;P1;durP2;ratioP2;P2;SDS_P1;SDS_P2;PMS_P1;PMS_P2;Temp;Humidity;BMP_temperature;BMP_pressure;BME280_temperature;BME280_humidity;BME280_pressure;Samples;Min_cycle;Max_cycle;Signal;HPM_P1;HPM_P2
2022/11/13 00:00:13;;;;;;;4.72;4.43;;;;;;;;;;5031440;28;20379;-83
2022/11/13 00:02:39;;;;;;;5.28;4.88;;;;;;;;;;4970097;28;1786035;-83
2022/11/13 00:05:05;;;;;;;4.72;4.40;;;;;;;;;;5033057;28;20387;-84
2022/11/13 00:07:31;;;;;;;4.43;4.13;;;;;;;;;;5032849;28;20855;-83
2022/11/13 00:09:57;;;;;;;4.78;4.47;;;;;;;;;;5032805;28;20414;-83
2022/11/13 00:12:23;;;;;;;5.00;4.60;;;;;;;;;;5032861;28;20872;-83
2022/11/13 00:14:49;;;;;;;4.60;4.25;;;;;;;;;;5020745;28;20394;-83
2022/11/13 00:17:15;;;;;;;4.68;4.38;;;;;;;;;;5017065;28;20464;-83
2022/11/13 00:19:41;;;;;;;4.73;4.43;;;;;;;;;;5041063;28;20382;-83
2022/11/13 00:22:07;;;;;;;4.90;4.60;;;;;;;;;;5021412;28;20446;-83
2022/11/13 00:24:33;;;;;;;4.70;4.40;;;;;;;;;;5028802;28;20395;-83
2022/11/13 00:26:59;;;;;;;4.47;4.17;;;;;;;;;;5012373;28;20415;-83
2022/11/13 00:29:25;;;;;;;4.55;4.25;;;;;;;;;;5024915;28;20468;-83
2022/11/13 00:31:51;;;;;;;4.38;4.07;;;;;;;;;;5032359;28;20391;-83
2022/11/13 00:34:17;;;;;;;4.80;4.50;;;;;;;;;;5031863;28;21026;-83
2022/11/13 00:36:43;;;;;;;4.47;4.18;;;;;;;;;;5030399;28;20395;-83
2022/11/13 00:39:09;;;;;;;4.40;4.10;;;;;;;;;;5030766;28;20471;-83
2022/11/13 00:41:35;;;;;;;4.05;3.75;;;;;;;;;;5030253;28;20383;-83
2022/11/13 00:44:02;;;;;;;4.20;3.90;;;;;;;;;;5030273;28;20379;-83
2022/11/13 00:46:29;;;;;;;4.40;4.10;;;;;;;;;;5031298;28;20386;-83
2022/11/13 00:48:55;;;;;;;4.18;3.88;;;;;;;;;;5030992;28;20403;-83
2022/11/13 00:51:21;;;;;;;4.30;4.00;;;;;;;;;;5031284;28;20398;-83
2022/11/13 00:53:47;;;;;;;4.15;3.85;;;;;;;;;;5031392;28;20387;-84
2022/11/13 00:56:13;;;;;;;3.60;3.38;;;;;;;;;;5032107;28;20376;-83
2022/11/13 00:58:39;;;;;;;4.40;4.10;;;;;;;;;;5032318;28;20386;-82
2022/11/13 06:02:21;;;;;;;4.82;4.53;;;;;;;;;;5127620;23;20472;-82
2022/11/13 06:04:48;;;;;;;5.05;4.65;;;;;;;;;;5038120;28;20429;-81
2022/11/13 06:07:14;;;;;;;5.03;4.63;;;;;;;;;;5029619;28;20728;-82
2022/11/13 06:09:40;;;;;;;4.85;4.45;;;;;;;;;;5031041;28;20896;-82
2022/11/13 06:12:06;;;;;;;5.10;4.70;;;;;;;;;;5036599;28;20391;-82
2022/11/13 06:14:32;;;;;;;4.80;4.47;;;;;;;;;;5039117;28;20476;-81
2022/11/13 06:16:58;;;;;;;4.60;4.18;;;;;;;;;;5041247;28;20434;-81
2022/11/13 06:19:24;;;;;;;4.50;4.20;;;;;;;;;;5057934;28;20391;-81
2022/11/13 06:21:50;;;;;;;4.53;4.22;;;;;;;;;;5059861;28;20385;-82
2022/11/13 06:24:16;;;;;;;4.43;4.10;;;;;;;;;;5057201;28;20395;-82
2022/11/13 06:26:42;;;;;;;4.45;4.15;;;;;;;;;;5055788;28;20400;-82
2022/11/13 06:29:10;;;;;;;4.80;4.50;;;;;;;;;;5056148;28;20418;-82
2022/11/13 06:31:36;;;;;;;4.88;4.53;;;;;;;;;;5052812;28;20384;-83
2022/11/13 06:34:02;;;;;;;4.90;4.50;;;;;;;;;;5055125;28;20428;-83
2022/11/13 06:36:30;;;;;;;4.40;4.10;;;;;;;;;;5054752;28;20881;-82
2022/11/13 06:38:56;;;;;;;4.78;4.40;;;;;;;;;;5045391;28;20387;-82
2022/11/13 06:41:23;;;;;;;5.32;4.93;;;;;;;;;;5033908;28;20391;-81
2022/11/13 06:43:49;;;;;;;5.00;4.60;;;;;;;;;;5040549;28;20766;-82
2022/11/13 06:46:22;;;;;;;4.78;4.40;;;;;;;;;;5032869;28;20395;-83
2022/11/13 06:48:49;;;;;;;4.95;4.55;;;;;;;;;;5034151;28;20770;-83
2022/11/13 06:51:16;;;;;;;4.30;4.00;;;;;;;;;;5044047;28;20383;-84
2022/11/13 06:53:42;;;;;;;4.90;4.60;;;;;;;;;;5051698;28;20538;-84
2022/11/13 06:56:09;;;;;;;4.38;4.07;;;;;;;;;;5034414;28;20437;-82
2022/11/13 06:58:36;;;;;;;4.90;4.50;;;;;;;;;;5036108;28;20391;-82
2022/11/13 07:01:08;;;;;;;4.60;4.20;;;;;;;;;;5045804;28;20757;-83
2022/11/13 07:03:34;;;;;;;4.45;4.15;;;;;;;;;;5035105;28;20710;-83
2022/11/13 07:06:02;;;;;;;4.50;4.20;;;;;;;;;;5053642;28;20373;-83
2022/11/13 07:08:27;;;;;;;4.32;4.03;;;;;;;;;;5053833;28;20413;-82
2022/11/13 07:10:54;;;;;;;4.70;4.30;;;;;;;;;;5052756;28;20457;-85
2022/11/13 07:13:20;;;;;;;4.60;4.30;;;;;;;;;;5039571;28;20469;-84
2022/11/13 07:15:46;;;;;;;4.60;4.30;;;;;;;;;;5049045;28;20384;-83
2022/11/13 07:18:13;;;;;;;5.07;4.60;;;;;;;;;;5053954;28;20417;-84
2022/11/13 07:20:39;;;;;;;5.30;4.90;;;;;;;;;;5052571;28;20381;-83
2022/11/13 07:23:05;;;;;;;5.10;4.70;;;;;;;;;;5053650;28;20468;-84
2022/11/13 07:25:32;;;;;;;5.43;5.03;;;;;;;;;;5048118;28;20460;-83
2022/11/13 07:27:58;;;;;;;5.60;5.20;;;;;;;;;;5052346;28;20717;-83
2022/11/13 07:30:24;;;;;;;5.05;4.75;;;;;;;;;;5043103;28;20910;-85
2022/11/13 07:32:50;;;;;;;5.78;5.38;;;;;;;;;;5053621;28;20385;-83
2022/11/13 07:35:17;;;;;;;5.80;5.30;;;;;;;;;;5053533;28;20789;-83
2022/11/13 07:37:43;;;;;;;5.90;5.40;;;;;;;;;;5053669;28;20382;-83
2022/11/13 07:40:10;;;;;;;5.55;5.00;;;;;;;;;;5053368;28;20520;-82
2022/11/13 07:42:36;;;;;;;5.60;5.20;;;;;;;;;;5053399;28;20392;-84
2022/11/13 07:45:02;;;;;;;6.03;5.53;;;;;;;;;;5053301;28;20472;-84
2022/11/13 07:47:28;;;;;;;5.60;5.10;;;;;;;;;;5052767;28;20397;-84
2022/11/13 07:49:54;;;;;;;6.33;5.83;;;;;;;;;;5034850;28;20406;-85
2022/11/13 07:52:20;;;;;;;6.25;5.75;;;;;;;;;;5033505;28;20443;-84
2022/11/13 07:54:46;;;;;;;6.10;5.60;;;;;;;;;;5032964;28;20418;-85
2022/11/13 07:57:12;;;;;;;6.57;5.90;;;;;;;;;;5043575;28;20704;-83
2022/11/13 07:59:38;;;;;;;6.50;5.90;;;;;;;;;;5036215;28;20397;-83
2022/11/13 08:02:04;;;;;;;6.32;5.82;;;;;;;;;;5037556;28;20396;-85
2022/11/13 08:04:30;;;;;;;5.82;5.32;;;;;;;;;;5053311;28;20394;-85
2022/11/13 08:06:56;;;;;;;6.05;5.55;;;;;;;;;;5052845;28;20919;-84
2022/11/13 08:09:22;;;;;;;6.22;5.72;;;;;;;;;;5052832;28;20412;-84
2022/11/13 08:11:48;;;;;;;6.40;5.90;;;;;;;;;;5053068;28;20731;-84
2022/11/13 08:14:15;;;;;;;6.65;6.05;;;;;;;;;;5037425;28;20386;-85
2022/11/13 08:16:41;;;;;;;7.13;6.43;;;;;;;;;;5047198;28;20445;-84
2022/11/13 08:19:07;;;;;;;7.30;6.60;;;;;;;;;;5024389;28;20402;-85
2022/11/13 08:21:34;;;;;;;6.80;6.20;;;;;;;;;;5021194;28;20522;-84
2022/11/13 08:24:00;;;;;;;7.72;7.00;;;;;;;;;;5040459;28;20398;-86
2022/11/13 08:26:26;;;;;;;8.13;7.32;;;;;;;;;;5036361;28;20395;-86
2022/11/13 08:28:52;;;;;;;8.60;7.80;;;;;;;;;;5028010;28;20410;-86
2022/11/13 08:31:18;;;;;;;8.30;7.50;;;;;;;;;;5035871;28;20391;-86
2022/11/13 08:33:44;;;;;;;9.38;8.27;;;;;;;;;;5022955;28;20383;-86
2022/11/13 08:36:10;;;;;;;9.20;8.30;;;;;;;;;;5025091;28;20389;-85
2022/11/13 08:38:37;;;;;;;11.00;8.85;;;;;;;;;;5023669;28;20445;-86
2022/11/13 08:41:04;;;;;;;9.73;8.77;;;;;;;;;;5014224;28;20380;-86
2022/11/13 08:43:31;;;;;;;8.30;7.53;;;;;;;;;;5025452;28;20397;-85
2022/11/13 08:45:57;;;;;;;8.67;7.77;;;;;;;;;;5019333;28;20464;-86
2022/11/13 08:48:23;;;;;;;8.60;7.70;;;;;;;;;;5027307;28;20401;-86
2022/11/13 08:50:53;;;;;;;9.18;8.27;;;;;;;;;;5028661;28;20410;-85
2022/11/13 08:53:19;;;;;;;8.75;7.95;;;;;;;;;;5029568;28;20375;-85
2022/11/13 08:55:45;;;;;;;8.68;7.88;;;;;;;;;;5035453;28;20430;-85
2022/11/13 08:58:11;;;;;;;8.65;7.70;;;;;;;;;;5033424;28;20879;-85
2022/11/13 09:00:37;;;;;;;8.20;7.38;;;;;;;;;;5040697;28;20393;-85
2022/11/13 09:03:03;;;;;;;7.97;7.20;;;;;;;;;;5049486;28;20464;-85
2022/11/13 09:05:29;;;;;;;8.15;7.45;;;;;;;;;;5033414;28;20749;-86
2022/11/13 09:07:57;;;;;;;8.48;7.72;;;;;;;;;;5023209;28;20502;-85
2022/11/13 09:10:23;;;;;;;8.67;7.87;;;;;;;;;;5031155;28;20404;-85
2022/11/13 09:12:49;;;;;;;7.90;7.20;;;;;;;;;;5012600;28;20888;-86
2022/11/13 09:15:14;;;;;;;8.10;7.30;;;;;;;;;;5029858;28;20435;-86
2022/11/13 09:17:41;;;;;;;8.57;7.78;;;;;;;;;;5032328;28;20391;-85
2022/11/13 09:20:07;;;;;;;8.13;7.32;;;;;;;;;;5029361;28;20413;-86
2022/11/13 09:22:33;;;;;;;9.60;8.77;;;;;;;;;;5030130;28;20374;-86
2022/11/13 09:24:59;;;;;;;8.85;8.15;;;;;;;;;;5030700;28;20385;-85
2022/11/13 09:27:25;;;;;;;7.80;7.10;;;;;;;;;;5035427;28;20379;-85
2022/11/13 09:29:51;;;;;;;7.93;7.27;;;;;;;;;;5037555;28;20959;-85
2022/11/13 09:32:17;;;;;;;8.13;7.47;;;;;;;;;;5039513;28;20449;-84
2022/11/13 09:34:43;;;;;;;8.13;7.53;;;;;;;;;;5028858;28;20384;-86
2022/11/13 09:37:09;;;;;;;8.52;7.82;;;;;;;;;;5020756;28;20471;-85
2022/11/13 09:39:35;;;;;;;7.78;7.10;;;;;;;;;;5016976;28;20393;-85
2022/11/13 09:42:17;;;;;;;8.88;8.07;;;;;;;;;;5019932;28;20512;-85
2022/11/13 09:44:55;;;;;;;8.43;7.68;;;;;;;;;;5017674;28;20392;-86
2022/11/13 09:47:23;;;;;;;9.35;8.07;;;;;;;;;;5036605;28;20399;-85
2022/11/13 09:49:56;;;;;;;8.38;7.68;;;;;;;;;;5037246;28;20989;-86
2022/11/13 09:52:32;;;;;;;9.85;8.95;;;;;;;;;;5052964;28;20393;-86
2022/11/13 09:54:58;;;;;;;10.02;9.13;;;;;;;;;;5030466;28;20384;-84
2022/11/13 09:57:30;;;;;;;8.40;7.70;;;;;;;;;;5055547;28;20385;-86
2022/11/13 09:59:59;;;;;;;18.13;12.23;;;;;;;;;;5059174;28;20416;-85
2022/11/13 10:02:37;;;;;;;8.45;7.63;;;;;;;;;;5056866;28;20455;-85
2022/11/13 10:05:14;;;;;;;8.85;8.15;;;;;;;;;;5056712;28;20874;-85
2022/11/13 10:07:56;;;;;;;8.50;7.90;;;;;;;;;;5056269;28;20385;-87
2022/11/13 10:10:41;;;;;;;8.68;7.97;;;;;;;;;;5055843;28;20410;-86
2022/11/13 10:13:09;;;;;;;8.87;8.17;;;;;;;;;;5039546;28;20455;-87
2022/11/13 10:15:36;;;;;;;9.82;9.00;;;;;;;;;;5048878;28;20385;-86
2022/11/13 10:18:07;;;;;;;9.43;8.73;;;;;;;;;;5055262;28;20381;-87
2022/11/13 10:20:38;;;;;;;9.40;8.65;;;;;;;;;;5055316;28;20846;-85
2022/11/13 10:23:25;;;;;;;8.98;8.27;;;;;;;;;;5055003;28;20381;-85
2022/11/13 10:25:51;;;;;;;9.90;9.10;;;;;;;;;;5054644;28;20385;-85
2022/11/13 10:28:24;;;;;;;8.50;7.90;;;;;;;;;;5054939;28;20786;-85
2022/11/13 10:30:50;;;;;;;8.98;8.30;;;;;;;;;;5012999;28;20900;-85
2022/11/13 10:33:17;;;;;;;8.60;8.00;;;;;;;;;;5053905;28;20392;-84
2022/11/13 10:35:46;;;;;;;8.70;8.07;;;;;;;;;;5055163;28;20913;-85
2022/11/13 10:38:34;;;;;;;9.63;8.82;;;;;;;;;;5054949;28;20369;-84
2022/11/13 10:41:19;;;;;;;9.90;9.10;;;;;;;;;;5054555;28;20873;-85
2022/11/13 10:44:08;;;;;;;8.50;7.80;;;;;;;;;;5054985;28;20918;-84
2022/11/13 10:46:34;;;;;;;9.00;8.30;;;;;;;;;;5044062;28;20397;-84
2022/11/13 10:49:12;;;;;;;8.90;8.20;;;;;;;;;;5043680;28;20413;-84
2022/11/13 10:51:38;;;;;;;8.85;8.15;;;;;;;;;;5054402;28;20424;-84
2022/11/13 10:54:24;;;;;;;9.00;8.30;;;;;;;;;;5047961;28;20835;-84
2022/11/13 10:57:01;;;;;;;9.20;8.40;;;;;;;;;;5045125;28;20381;-85
2022/11/13 10:59:37;;;;;;;8.77;8.07;;;;;;;;;;5047248;28;20382;-84
2022/11/13 11:02:19;;;;;;;8.52;7.93;;;;;;;;;;5053954;28;20402;-84
2022/11/13 11:04:45;;;;;;;9.20;8.50;;;;;;;;;;5054164;28;20396;-84
2022/11/13 11:07:14;;;;;;;9.07;8.38;;;;;;;;;;5049702;28;20391;-84
2022/11/13 11:09:42;;;;;;;9.00;8.30;;;;;;;;;;5044583;28;20496;-84
2022/11/13 11:12:17;;;;;;;8.50;7.80;;;;;;;;;;5036003;28;20894;-85
2022/11/13 11:14:58;;;;;;;8.50;7.87;;;;;;;;;;5037083;28;20376;-85
2022/11/13 11:17:31;;;;;;;8.52;7.90;;;;;;;;;;5034420;28;20386;-84
2022/11/13 11:20:10;;;;;;;9.13;8.43;;;;;;;;;;5053957;28;20914;-82
2022/11/13 11:22:38;;;;;;;9.00;8.30;;;;;;;;;;5053913;28;20472;-84
2022/11/13 11:25:06;;;;;;;9.02;8.30;;;;;;;;;;5028893;28;20890;-84
2022/11/13 11:27:42;;;;;;;9.88;9.15;;;;;;;;;;5041619;28;20385;-83
2022/11/13 11:30:25;;;;;;;8.73;8.02;;;;;;;;;;5053237;28;20406;-83
2022/11/13 11:33:09;;;;;;;8.40;7.80;;;;;;;;;;5053892;28;20448;-84
2022/11/13 11:35:40;;;;;;;8.73;8.07;;;;;;;;;;5051927;28;20373;-83
2022/11/13 11:38:15;;;;;;;8.48;7.80;;;;;;;;;;5036987;28;20384;-83
2022/11/13 11:40:42;;;;;;;9.15;8.45;;;;;;;;;;5053614;28;20770;-83
2022/11/13 11:43:15;;;;;;;8.65;8.05;;;;;;;;;;5053494;28;20460;-84
2022/11/13 11:45:42;;;;;;;7.60;7.10;;;;;;;;;;5053624;28;20376;-84
2022/11/13 11:48:13;;;;;;;8.00;7.40;;;;;;;;;;5053243;28;20464;-84
2022/11/13 11:50:45;;;;;;;8.80;8.20;;;;;;;;;;5053626;28;20373;-83
2022/11/13 11:53:13;;;;;;;8.43;7.83;;;;;;;;;;5053417;28;20700;-83
2022/11/13 11:55:49;;;;;;;8.93;8.33;;;;;;;;;;5051043;28;20374;-85
2022/11/13 11:58:33;;;;;;;8.77;8.15;;;;;;;;;;5047787;28;20374;-85
2022/11/13 12:01:13;;;;;;;9.00;8.40;;;;;;;;;;5052626;28;20874;-85
2022/11/13 12:03:55;;;;;;;7.68;7.18;;;;;;;;;;5050497;28;20378;-85
2022/11/13 12:06:27;;;;;;;8.15;7.60;;;;;;;;;;5033508;28;20481;-84
2022/11/13 12:08:56;;;;;;;8.20;7.60;;;;;;;;;;5019958;28;20401;-84
2022/11/13 12:11:25;;;;;;;8.20;7.60;;;;;;;;;;5037902;28;20383;-84
2022/11/13 12:13:51;;;;;;;8.63;8.02;;;;;;;;;;5012439;28;20385;-85
2022/11/13 12:16:20;;;;;;;8.70;8.10;;;;;;;;;;5012544;28;20468;-85
2022/11/13 12:18:54;;;;;;;9.02;8.32;;;;;;;;;;5016399;28;20393;-84
2022/11/13 12:21:27;;;;;;;10.32;9.52;;;;;;;;;;5050832;28;20459;-84
2022/11/13 12:23:53;;;;;;;10.80;10.00;;;;;;;;;;5052565;28;20435;-84
2022/11/13 12:26:28;;;;;;;10.05;9.25;;;;;;;;;;5052575;28;20385;-85
2022/11/13 12:29:06;;;;;;;9.20;8.55;;;;;;;;;;5052495;28;20440;-85
2022/11/13 12:31:38;;;;;;;8.77;8.18;;;;;;;;;;5019309;28;20488;-85
2022/11/13 12:34:04;;;;;;;9.60;8.75;;;;;;;;;;5014764;28;20463;-85
2022/11/13 12:36:30;;;;;;;8.50;7.90;;;;;;;;;;5047763;28;20862;-85
2022/11/13 12:38:56;;;;;;;8.52;7.82;;;;;;;;;;5030560;28;20394;-85
2022/11/13 12:41:23;;;;;;;8.43;7.82;;;;;;;;;;5048134;28;20739;-85
2022/11/13 12:43:49;;;;;;;8.70;8.00;;;;;;;;;;5052233;28;20388;-85
2022/11/13 12:46:15;;;;;;;8.93;8.32;;;;;;;;;;5052384;28;20385;-84
2022/11/13 12:48:42;;;;;;;9.23;8.52;;;;;;;;;;5033283;28;20949;-84
2022/11/13 12:51:10;;;;;;;8.60;8.00;;;;;;;;;;5052066;28;20384;-85
2022/11/13 12:53:50;;;;;;;10.15;9.25;;;;;;;;;;5051104;28;20377;-85
2022/11/13 12:56:16;;;;;;;10.65;9.65;;;;;;;;;;5044031;28;20391;-85
2022/11/13 12:58:51;;;;;;;11.05;10.25;;;;;;;;;;5050583;28;20384;-85
2022/11/13 13:01:18;;;;;;;11.18;10.38;;;;;;;;;;5051855;28;20894;-85
2022/11/13 13:04:08;;;;;;;9.85;9.15;;;;;;;;;;5034124;28;20874;-85
2022/11/13 13:06:40;;;;;;;8.73;8.02;;;;;;;;;;5041784;28;20473;-85
2022/11/13 13:09:06;;;;;;;9.20;8.60;;;;;;;;;;5052073;28;20415;-85
2022/11/13 13:12:00;;;;;;;9.83;9.13;;;;;;;;;;5051977;28;20508;-84
2022/11/13 13:14:32;;;;;;;9.80;9.10;;;;;;;;;;5037991;28;20378;-85
2022/11/13 13:17:13;;;;;;;10.23;9.33;;;;;;;;;;5048615;28;20417;-85
2022/11/13 13:19:39;;;;;;;9.40;8.70;;;;;;;;;;5033949;28;21003;-85
2022/11/13 13:22:26;;;;;;;9.80;8.90;;;;;;;;;;5043230;28;20400;-85
2022/11/13 13:25:06;;;;;;;9.15;8.45;;;;;;;;;;5038600;28;20389;-84
2022/11/13 13:27:35;;;;;;;9.88;8.85;;;;;;;;;;5047179;28;20470;-85
2022/11/13 13:30:11;;;;;;;9.57;8.88;;;;;;;;;;5029592;28;20432;-84
2022/11/13 13:32:37;;;;;;;10.80;10.00;;;;;;;;;;5052126;28;20398;-84
2022/11/13 13:35:14;;;;;;;10.05;9.35;;;;;;;;;;5051387;28;20385;-85
2022/11/13 13:37:47;;;;;;;9.43;8.80;;;;;;;;;;5058116;28;20389;-85
2022/11/13 13:40:23;;;;;;;9.63;8.93;;;;;;;;;;5053527;28;20854;-85
2022/11/13 13:42:54;;;;;;;8.15;7.45;;;;;;;;;;5052338;28;20866;-85
2022/11/13 13:45:26;;;;;;;8.55;7.93;;;;;;;;;;5025663;28;20373;-85
2022/11/13 13:47:54;;;;;;;9.88;9.18;;;;;;;;;;5052261;28;20734;-85
2022/11/13 13:50:22;;;;;;;9.25;8.65;;;;;;;;;;5051632;28;20889;-85
2022/11/13 13:52:48;;;;;;;9.48;8.88;;;;;;;;;;5051946;28;20790;-87
2022/11/13 13:55:20;;;;;;;10.57;9.77;;;;;;;;;;5051871;28;20783;-85
2022/11/13 13:57:46;;;;;;;10.23;9.43;;;;;;;;;;5025421;28;20451;-86
2022/11/13 14:00:12;;;;;;;9.63;8.82;;;;;;;;;;5052795;28;20389;-84
2022/11/13 14:02:45;;;;;;;8.80;8.20;;;;;;;;;;5047709;28;20474;-85
2022/11/13 14:05:24;;;;;;;10.15;9.45;;;;;;;;;;5037309;28;20387;-85
2022/11/13 14:07:50;;;;;;;11.88;10.77;;;;;;;;;;5056509;28;20443;-83
2022/11/13 14:10:17;;;;;;;11.90;10.70;;;;;;;;;;5039013;28;20496;-84
2022/11/13 14:12:44;;;;;;;10.93;10.03;;;;;;;;;;5055222;28;20381;-85
2022/11/13 14:15:16;;;;;;;14.23;10.88;;;;;;;;;;5055104;28;20396;-84
2022/11/13 14:17:42;;;;;;;12.70;11.60;;;;;;;;;;5055041;28;20374;-85
2022/11/13 14:20:11;;;;;;;14.15;13.05;;;;;;;;;;5055201;28;20381;-86
2022/11/13 14:22:38;;;;;;;16.52;15.13;;;;;;;;;;5055286;28;20386;-87
2022/11/13 14:25:04;;;;;;;14.05;12.95;;;;;;;;;;5021372;28;20408;-86
2022/11/13 14:27:31;;;;;;;14.13;13.02;;;;;;;;;;5034280;28;20395;-85
2022/11/13 14:30:01;;;;;;;12.70;11.80;;;;;;;;;;5034569;28;20406;-87
2022/11/13 14:32:27;;;;;;;12.55;11.55;;;;;;;;;;5017879;28;20447;-87
2022/11/13 14:34:54;;;;;;;13.35;12.35;;;;;;;;;;5031694;28;20748;-87
2022/11/13 14:37:22;;;;;;;13.50;12.50;;;;;;;;;;5017511;28;20444;-87
2022/11/13 14:39:49;;;;;;;13.65;12.65;;;;;;;;;;5019102;28;20411;-87
2022/11/13 14:42:21;;;;;;;14.20;13.10;;;;;;;;;;5017953;28;20385;-87
2022/11/13 14:44:47;;;;;;;14.43;13.13;;;;;;;;;;5010362;28;20905;-87
2022/11/13 14:47:21;;;;;;;14.30;13.20;;;;;;;;;;5019298;28;20392;-87
2022/11/13 14:49:47;;;;;;;15.23;13.93;;;;;;;;;;5034099;28;20498;-86
2022/11/13 14:52:39;;;;;;;15.23;13.93;;;;;;;;;;5024228;28;20466;-87
2022/11/13 14:55:06;;;;;;;14.05;12.95;;;;;;;;;;5022812;28;20398;-88
2022/11/13 14:57:33;;;;;;;14.40;13.38;;;;;;;;;;5016409;28;20441;-86
2022/11/13 15:00:12;;;;;;;15.23;13.87;;;;;;;;;;5032069;28;20395;-86
2022/11/13 15:02:38;;;;;;;14.32;13.23;;;;;;;;;;5029638;28;20414;-86
2022/11/13 15:05:04;;;;;;;15.02;13.85;;;;;;;;;;5033285;28;20391;-87
2022/11/13 15:07:32;;;;;;;15.35;14.15;;;;;;;;;;5032906;28;20390;-87
2022/11/13 15:09:58;;;;;;;15.32;14.13;;;;;;;;;;5032588;28;20403;-87
2022/11/13 15:12:24;;;;;;;13.82;12.77;;;;;;;;;;5015496;28;20396;-87
2022/11/13 15:14:51;;;;;;;14.43;13.40;;;;;;;;;;5023357;28;20391;-87
2022/11/13 15:17:19;;;;;;;15.07;13.88;;;;;;;;;;5031263;28;20379;-87
2022/11/13 15:19:47;;;;;;;14.82;13.52;;;;;;;;;;5031471;28;20837;-87
2022/11/13 15:22:14;;;;;;;15.00;13.68;;;;;;;;;;5031120;28;20752;-88
2022/11/13 15:24:40;;;;;;;13.82;12.73;;;;;;;;;;5032349;28;20383;-88
2022/11/13 15:27:06;;;;;;;16.98;15.55;;;;;;;;;;5033950;28;20388;-88
2022/11/13 15:29:32;;;;;;;16.52;15.23;;;;;;;;;;5033579;28;20410;-87
2022/11/13 15:31:58;;;;;;;16.38;15.02;;;;;;;;;;5033622;28;20380;-87
2022/11/13 15:34:24;;;;;;;15.60;14.40;;;;;;;;;;5033521;28;20371;-87
2022/11/13 15:36:50;;;;;;;14.30;13.27;;;;;;;;;;5033410;28;20413;-87
2022/11/13 15:39:17;;;;;;;14.93;13.73;;;;;;;;;;5026914;28;21062;-88
2022/11/13 15:41:43;;;;;;;14.95;13.85;;;;;;;;;;5028082;28;20392;-86
2022/11/13 15:44:12;;;;;;;14.13;12.98;;;;;;;;;;5036187;28;20381;-87
2022/11/13 15:46:39;;;;;;;13.95;12.65;;;;;;;;;;5031607;28;20388;-86
2022/11/13 15:49:05;;;;;;;11.70;10.80;;;;;;;;;;5019277;28;20437;-87
2022/11/13 15:51:33;;;;;;;11.48;10.68;;;;;;;;;;5019421;28;20387;-86
2022/11/13 15:54:01;;;;;;;10.95;9.93;;;;;;;;;;5026181;28;20750;-87
2022/11/13 15:56:28;;;;;;;13.20;12.10;;;;;;;;;;5016436;28;20385;-87
2022/11/13 15:58:54;;;;;;;12.97;11.97;;;;;;;;;;5024986;28;20533;-83
2022/11/13 16:01:20;;;;;;;10.88;10.13;;;;;;;;;;5045054;28;20396;-85
2022/11/13 16:03:46;;;;;;;10.20;9.50;;;;;;;;;;5046397;28;20385;-87
2022/11/13 16:06:17;;;;;;;10.52;9.73;;;;;;;;;;5049774;28;20381;-87
2022/11/13 16:08:43;;;;;;;13.60;12.60;;;;;;;;;;5016848;28;20472;-87
2022/11/13 16:11:16;;;;;;;12.63;11.63;;;;;;;;;;5019360;28;20737;-87
2022/11/13 16:13:42;;;;;;;14.70;13.60;;;;;;;;;;5011996;28;21163;-86
2022/11/13 16:16:14;;;;;;;15.83;14.47;;;;;;;;;;5041685;28;20925;-86
2022/11/13 16:18:40;;;;;;;16.80;15.32;;;;;;;;;;5050521;28;20441;-87
2022/11/13 16:21:08;;;;;;;15.40;14.20;;;;;;;;;;5032010;28;20382;-87
2022/11/13 16:23:35;;;;;;;15.38;14.13;;;;;;;;;;5023986;28;20382;-86
2022/11/13 16:26:03;;;;;;;15.13;13.93;;;;;;;;;;5019504;28;20397;-87
2022/11/13 16:28:29;;;;;;;13.60;12.45;;;;;;;;;;5022726;28;20389;-87
2022/11/13 16:30:56;;;;;;;14.00;12.73;;;;;;;;;;5035884;28;20399;-88
2022/11/13 16:33:23;;;;;;;13.02;11.73;;;;;;;;;;5025950;28;20461;-87
2022/11/13 16:35:49;;;;;;;13.83;12.23;;;;;;;;;;5041236;28;20385;-88
2022/11/13 16:38:15;;;;;;;13.35;12.15;;;;;;;;;;5018093;28;20387;-87
2022/11/13 16:40:42;;;;;;;12.57;11.68;;;;;;;;;;5025851;28;20786;-87
2022/11/13 16:43:08;;;;;;;12.48;11.57;;;;;;;;;;5019408;28;20468;-87
2022/11/13 16:45:36;;;;;;;11.75;10.75;;;;;;;;;;5014249;28;20712;-86
2022/11/13 16:48:02;;;;;;;10.73;9.93;;;;;;;;;;5026693;28;20411;-87
2022/11/13 16:50:30;;;;;;;11.70;10.90;;;;;;;;;;5012130;28;20898;-86
2022/11/13 16:52:56;;;;;;;10.77;9.98;;;;;;;;;;5026230;28;20740;-85
2022/11/13 16:55:22;;;;;;;13.30;10.60;;;;;;;;;;5032991;28;20400;-83
2022/11/13 16:57:48;;;;;;;12.13;10.80;;;;;;;;;;5040112;28;20401;-87
2022/11/13 17:00:15;;;;;;;14.95;10.45;;;;;;;;;;5035170;28;20382;-85
2022/11/13 17:02:41;;;;;;;11.07;10.07;;;;;;;;;;5042798;28;20383;-85
2022/11/13 17:05:12;;;;;;;10.07;9.30;;;;;;;;;;5048725;28;20468;-85
2022/11/13 17:07:38;;;;;;;10.10;9.32;;;;;;;;;;5053189;28;20381;-84
2022/11/13 17:10:04;;;;;;;10.32;9.52;;;;;;;;;;5056590;28;20770;-83
2022/11/13 17:12:30;;;;;;;10.00;9.30;;;;;;;;;;5064510;28;20914;-83
2022/11/13 17:14:56;;;;;;;16.03;14.17;;;;;;;;;;5061385;28;20398;-85
2022/11/13 17:17:22;;;;;;;13.13;11.90;;;;;;;;;;5037325;28;20379;-84
2022/11/13 17:19:48;;;;;;;12.43;11.13;;;;;;;;;;5036297;28;20396;-83
2022/11/13 17:22:15;;;;;;;11.90;10.80;;;;;;;;;;5016419;28;20454;-84
2022/11/13 17:24:42;;;;;;;12.47;10.90;;;;;;;;;;5049258;28;20466;-85
2022/11/13 17:27:08;;;;;;;12.93;11.93;;;;;;;;;;5043234;28;20388;-85
2022/11/13 17:29:34;;;;;;;13.48;12.38;;;;;;;;;;5033567;28;20447;-85
2022/11/13 17:32:00;;;;;;;14.32;12.93;;;;;;;;;;5044061;28;20804;-84
2022/11/13 17:34:26;;;;;;;13.57;12.38;;;;;;;;;;5045659;28;20386;-86
2022/11/13 17:36:53;;;;;;;13.60;12.60;;;;;;;;;;5056280;28;20386;-87
2022/11/13 17:39:20;;;;;;;12.90;11.75;;;;;;;;;;5056398;28;20384;-85
2022/11/13 17:41:46;;;;;;;12.88;11.70;;;;;;;;;;5038134;28;20862;-85
2022/11/13 17:44:12;;;;;;;12.38;11.38;;;;;;;;;;5055719;28;20377;-83
2022/11/13 17:46:38;;;;;;;15.60;14.32;;;;;;;;;;5056008;28;20711;-83
2022/11/13 17:49:04;;;;;;;13.68;12.07;;;;;;;;;;5055840;28;20412;-84
2022/11/13 17:51:30;;;;;;;11.93;10.33;;;;;;;;;;5050449;28;20389;-83
2022/11/13 17:53:56;;;;;;;11.25;10.38;;;;;;;;;;5055834;28;20392;-85
2022/11/13 17:56:22;;;;;;;11.00;10.20;;;;;;;;;;5036127;28;20388;-84
2022/11/13 17:58:48;;;;;;;11.63;10.73;;;;;;;;;;5039380;28;20386;-85
2022/11/13 18:01:18;;;;;;;11.90;11.00;;;;;;;;;;5023501;28;21028;-84
2022/11/13 18:03:45;;;;;;;12.73;11.73;;;;;;;;;;5026461;28;20361;-83
2022/11/13 18:06:14;;;;;;;14.80;13.60;;;;;;;;;;5055406;28;20520;-85
2022/11/13 18:08:41;;;;;;;15.48;14.18;;;;;;;;;;5055518;28;20758;-85
2022/11/13 18:11:09;;;;;;;14.27;13.07;;;;;;;;;;5055283;28;20412;-86
2022/11/13 18:13:35;;;;;;;13.65;12.55;;;;;;;;;;5050622;28;20717;-83
2022/11/13 18:16:05;;;;;;;13.52;12.43;;;;;;;;;;5038324;28;20374;-84
2022/11/13 18:18:31;;;;;;;13.53;12.07;;;;;;;;;;5047121;28;20381;-86
2022/11/13 18:20:57;;;;;;;10.93;10.13;;;;;;;;;;5050822;28;20911;-84
2022/11/13 18:23:23;;;;;;;12.27;11.25;;;;;;;;;;5027957;28;20475;-85
2022/11/13 18:25:52;;;;;;;12.07;10.88;;;;;;;;;;5024162;28;21119;-85
2022/11/13 18:28:18;;;;;;;13.52;12.25;;;;;;;;;;5028806;28;20888;-85
2022/11/13 18:30:44;;;;;;;13.00;11.90;;;;;;;;;;5027619;28;20434;-84
2022/11/13 18:33:10;;;;;;;11.52;10.60;;;;;;;;;;5026628;28;20390;-84
2022/11/13 18:35:36;;;;;;;10.95;10.15;;;;;;;;;;5028173;28;20816;-84
2022/11/13 18:38:02;;;;;;;11.50;10.43;;;;;;;;;;5024920;28;20399;-85
2022/11/13 18:40:28;;;;;;;16.17;10.90;;;;;;;;;;5026139;28;20418;-85
2022/11/13 18:42:54;;;;;;;10.65;9.85;;;;;;;;;;5030934;28;20380;-84
2022/11/13 18:45:20;;;;;;;11.10;10.13;;;;;;;;;;5025995;28;20392;-83
2022/11/13 18:47:46;;;;;;;14.27;11.17;;;;;;;;;;5027006;28;20462;-86
2022/11/13 18:50:12;;;;;;;11.10;10.23;;;;;;;;;;5025214;28;21660;-84
2022/11/13 18:52:38;;;;;;;9.85;9.13;;;;;;;;;;5018628;28;20407;-86
2022/11/13 18:55:04;;;;;;;10.65;9.75;;;;;;;;;;5021317;28;20409;-85
2022/11/13 18:57:30;;;;;;;11.55;10.63;;;;;;;;;;5019363;28;20897;-85
2022/11/13 18:59:56;;;;;;;11.35;10.45;;;;;;;;;;5017007;28;20401;-85
2022/11/13 19:02:22;;;;;;;11.43;10.52;;;;;;;;;;5019988;28;20419;-83
2022/11/13 19:04:48;;;;;;;13.83;12.63;;;;;;;;;;5019255;28;20497;-84
2022/11/13 19:07:14;;;;;;;14.48;13.25;;;;;;;;;;5017687;28;20436;-84
2022/11/13 19:09:44;;;;;;;14.05;12.85;;;;;;;;;;5009862;28;20459;-84
2022/11/13 19:12:10;;;;;;;13.43;12.32;;;;;;;;;;5039071;23;20934;-87
2022/11/13 19:14:36;;;;;;;14.88;13.57;;;;;;;;;;5027748;28;20395;-88
2022/11/13 19:17:02;;;;;;;12.90;11.80;;;;;;;;;;5023869;28;20410;-88
2022/11/13 19:19:28;;;;;;;12.85;11.75;;;;;;;;;;5021889;28;20729;-88
2022/11/13 19:21:54;;;;;;;11.95;10.98;;;;;;;;;;5024727;28;20391;-87
2022/11/13 19:24:20;;;;;;;11.23;10.43;;;;;;;;;;5031655;28;20403;-87
2022/11/13 19:26:46;;;;;;;14.63;13.43;;;;;;;;;;5025128;28;20410;-88
2022/11/13 19:29:12;;;;;;;12.53;11.53;;;;;;;;;;5024377;28;20505;-87
2022/11/13 19:31:38;;;;;;;13.18;12.18;;;;;;;;;;5026369;28;20446;-87
2022/11/13 19:34:06;;;;;;;14.60;13.40;;;;;;;;;;5022633;28;20397;-87
2022/11/13 19:36:32;;;;;;;14.23;13.13;;;;;;;;;;5015690;28;20407;-84
2022/11/13 19:38:59;;;;;;;14.18;13.07;;;;;;;;;;5017153;28;20397;-85
2022/11/13 19:41:26;;;;;;;14.18;13.07;;;;;;;;;;5012623;28;20462;-85